Time;durP1;ratioP1;P1;durP2;ratioP2;P2;SDS_P1;SDS_P2;PMS_P1;PMS_P2;Temp;Humidity;BMP_temperature;BMP_pressure;BME280_temperature;BME280_humidity;BME280_pressure;Samples;Min_cycle;Max_cycle;Signal;HPM_P1;HPM_P2
2022/06/01 00:01:16;;;;;;;6.77;6.27;;;14.80;99.90;;;;;;5012059;28;20207;-66
2022/06/01 00:03:43;;;;;;;5.73;5.33;;;14.90;99.90;;;;;;5019919;28;20283;-67
2022/06/01 00:06:10;;;;;;;5.60;5.20;;;14.90;99.90;;;;;;5020820;28;20204;-70
2022/06/01 00:08:36;;;;;;;6.00;5.40;;;14.90;99.90;;;;;;5035092;28;20204;-69
2022/06/01 00:11:02;;;;;;;5.90;5.40;;;14.90;99.90;;;;;;5021131;28;20209;-68
2022/06/01 00:13:28;;;;;;;6.10;5.50;;;14.90;99.90;;;;;;5015148;28;20243;-69
2022/06/01 00:15:54;;;;;;;8.00;4.67;;;14.90;99.90;;;;;;5016878;28;20204;-64
2022/06/01 00:18:22;;;;;;;5.87;5.37;;;14.90;99.90;;;;;;5021407;28;20619;-71
2022/06/01 00:20:48;;;;;;;6.30;5.80;;;14.90;99.90;;;;;;5021926;28;20218;-72
2022/06/01 00:23:14;;;;;;;7.20;5.57;;;14.80;99.90;;;;;;5042644;28;20651;-73
2022/06/01 00:25:41;;;;;;;5.70;5.10;;;14.80;99.90;;;;;;5023593;28;20223;-72
2022/06/01 00:28:07;;;;;;;7.87;5.43;;;14.80;99.90;;;;;;5030556;28;20192;-70
2022/06/01 00:30:32;;;;;;;6.33;4.93;;;14.80;99.90;;;;;;5017215;28;20700;-69
2022/06/01 00:32:58;;;;;;;5.77;5.27;;;14.80;99.90;;;;;;5028606;28;20195;-70
2022/06/01 00:35:24;;;;;;;6.43;5.83;;;14.70;99.90;;;;;;5018875;28;20258;-69
2022/06/01 00:37:50;;;;;;;6.10;5.50;;;14.70;99.90;;;;;;5033805;28;20275;-71
2022/06/01 00:40:18;;;;;;;7.57;5.90;;;14.60;99.90;;;;;;5024669;28;20215;-68
2022/06/01 00:42:47;;;;;;;5.70;5.20;;;14.50;99.90;;;;;;5017676;28;20194;-67
2022/06/01 00:45:16;;;;;;;6.03;5.40;;;14.50;99.90;;;;;;5018501;28;20291;-66
2022/06/01 00:47:41;;;;;;;7.13;4.90;;;14.30;99.90;;;;;;5016657;28;20193;-67
2022/06/01 00:50:24;;;;;;;10.73;5.80;;;14.10;99.90;;;;;;5016416;28;20630;-69
2022/06/01 00:53:17;;;;;;;6.80;5.60;;;14.00;99.90;;;;;;5016216;28;20189;-69
2022/06/01 00:56:01;;;;;;;5.90;5.40;;;14.00;99.90;;;;;;5012440;28;20753;-68
2022/06/01 00:58:37;;;;;;;7.57;5.40;;;13.90;99.90;;;;;;5019343;28;20212;-66
2022/06/01 01:01:04;;;;;;;6.20;5.27;;;13.90;99.90;;;;;;5015069;28;20215;-66
2022/06/01 01:03:35;;;;;;;6.27;5.70;;;13.80;99.90;;;;;;5020283;28;20196;-67
2022/06/01 01:06:10;;;;;;;6.73;6.17;;;13.80;99.90;;;;;;5011135;28;20203;-70
2022/06/01 01:08:35;;;;;;;6.53;6.03;;;13.80;99.90;;;;;;5018964;28;20195;-67
2022/06/01 01:11:00;;;;;;;7.07;6.50;;;13.80;99.90;;;;;;5014202;28;20294;-66
2022/06/01 01:13:26;;;;;;;6.90;6.30;;;13.80;99.90;;;;;;5019695;28;20246;-70
2022/06/01 01:15:54;;;;;;;5.30;4.90;;;13.90;99.90;;;;;;5017709;28;20200;-67
2022/06/01 01:18:35;;;;;;;6.60;6.07;;;13.80;99.90;;;;;;5019485;28;20287;-68
2022/06/01 01:21:16;;;;;;;83.13;75.13;;;13.80;99.90;;;;;;5012378;28;20207;-69
2022/06/01 01:24:13;;;;;;;234.70;214.23;;;13.70;99.90;;;;;;5017626;28;20340;-70
2022/06/01 01:26:40;;;;;;;71.33;64.80;;;13.70;99.90;;;;;;5013612;28;20200;-68
2022/06/01 01:29:09;;;;;;;131.43;118.60;;;13.70;99.90;;;;;;5019855;28;20207;-70
2022/06/01 01:31:37;;;;;;;16.80;12.63;;;13.60;99.90;;;;;;5016138;28;20215;-71
2022/06/01 01:34:03;;;;;;;11.57;7.70;;;13.60;99.90;;;;;;5028562;28;20214;-69
2022/06/01 01:36:38;;;;;;;10.57;9.27;;;13.50;99.90;;;;;;5009979;28;20625;-71
2022/06/01 01:39:09;;;;;;;20.57;15.57;;;13.50;99.90;;;;;;5024934;28;20780;-70
2022/06/01 01:41:39;;;;;;;149.13;135.03;;;13.40;99.90;;;;;;5006179;28;20621;-68
2022/06/01 01:44:10;;;;;;;6.57;5.97;;;13.40;99.90;;;;;;5021039;28;20181;-66
2022/06/01 01:46:36;;;;;;;9.50;8.40;;;13.50;99.90;;;;;;5015559;28;20184;-68
2022/06/01 01:49:02;;;;;;;6.73;6.13;;;13.50;99.90;;;;;;5015361;28;20203;-69
2022/06/01 01:51:29;;;;;;;10.43;9.43;;;13.50;99.90;;;;;;5016959;28;20225;-67
2022/06/01 01:53:56;;;;;;;6.07;5.57;;;13.60;99.90;;;;;;5013729;28;20299;-68
2022/06/01 01:56:40;;;;;;;6.90;6.27;;;13.60;99.90;;;;;;5014124;28;20515;-67
2022/06/01 01:59:21;;;;;;;6.23;5.63;;;13.70;99.90;;;;;;5015232;28;20294;-69
2022/06/01 02:01:51;;;;;;;7.53;5.77;;;13.50;99.90;;;;;;5014610;28;20279;-69
2022/06/01 02:07:21;;;;;;;5.97;5.43;;;13.50;99.90;;;;;;5014517;28;20199;-67
2022/06/01 02:12:41;;;;;;;9.57;8.73;;;13.50;99.90;;;;;;5013958;28;20269;-67
2022/06/01 02:15:08;;;;;;;215.93;195.10;;;13.50;99.90;;;;;;5015930;28;20194;-68
2022/06/01 02:17:40;;;;;;;206.83;184.60;;;13.50;99.90;;;;;;5013551;28;20216;-67
2022/06/01 02:20:14;;;;;;;109.43;89.40;;;13.50;99.90;;;;;;5011162;28;20305;-67
2022/06/01 02:22:42;;;;;;;5.33;4.83;;;13.60;99.90;;;;;;5011482;28;20196;-69
2022/06/01 02:25:10;;;;;;;93.83;82.03;;;13.60;99.90;;;;;;5021542;28;20192;-69
2022/06/01 02:27:37;;;;;;;274.10;235.63;;;13.60;99.90;;;;;;5028209;28;20200;-69
2022/06/01 02:30:09;;;;;;;49.60;22.70;;;13.60;99.90;;;;;;5025188;28;20187;-68
2022/06/01 02:32:36;;;;;;;5.17;4.67;;;13.60;99.90;;;;;;5029746;28;20277;-65
2022/06/01 02:35:05;;;;;;;148.83;129.30;;;13.70;99.90;;;;;;5043312;28;20210;-69
2022/06/01 02:37:33;;;;;;;332.93;297.60;;;13.60;99.90;;;;;;5015257;28;20203;-65
2022/06/01 02:40:03;;;;;;;369.57;329.73;;;13.60;99.90;;;;;;5043636;28;20328;-66
2022/06/01 02:42:29;;;;;;;306.87;217.23;;;13.50;99.90;;;;;;5013771;28;20195;-69
2022/06/01 02:44:56;;;;;;;4.03;3.77;;;13.60;99.90;;;;;;5039258;28;20187;-68
2022/06/01 02:47:23;;;;;;;3.90;3.67;;;13.60;99.90;;;;;;5027384;28;20203;-68
2022/06/01 02:49:48;;;;;;;6.27;5.77;;;13.60;99.90;;;;;;5028855;28;20612;-68
2022/06/01 02:52:14;;;;;;;4.40;4.03;;;13.60;99.90;;;;;;5020432;28;20667;-67
2022/06/01 02:54:40;;;;;;;219.87;150.83;;;13.50;99.90;;;;;;5034668;28;20938;-67
2022/06/01 02:57:06;;;;;;;29.07;16.63;;;13.50;99.90;;;;;;5010163;28;20662;-67
2022/06/01 02:59:32;;;;;;;19.63;10.63;;;13.50;99.90;;;;;;5028912;28;20215;-67
2022/06/01 03:01:58;;;;;;;396.43;354.30;;;13.50;99.90;;;;;;5009728;28;20569;-68
2022/06/01 03:04:23;;;;;;;326.17;279.67;;;13.50;99.90;;;;;;5026774;28;20196;-69
2022/06/01 03:06:50;;;;;;;138.20;123.27;;;13.50;99.90;;;;;;5005364;28;20196;-69
2022/06/01 03:09:15;;;;;;;535.23;445.33;;;13.50;99.90;;;;;;5040422;28;20896;-69
2022/06/01 03:11:41;;;;;;;602.87;470.37;;;13.50;99.90;;;;;;5017818;28;20226;-67
2022/06/01 03:14:06;;;;;;;367.67;308.53;;;13.50;99.90;;;;;;5026109;28;20653;-66
2022/06/01 03:16:32;;;;;;;465.13;417.20;;;13.50;99.90;;;;;;5022748;28;20264;-67
2022/06/01 03:18:57;;;;;;;448.67;399.23;;;13.50;99.90;;;;;;5019975;28;20212;-68
2022/06/01 03:21:23;;;;;;;608.03;531.40;;;13.50;99.90;;;;;;5018101;28;20294;-68
2022/06/01 03:23:48;;;;;;;587.90;487.00;;;13.60;99.90;;;;;;5043769;28;20215;-69
2022/06/01 03:26:15;;;;;;;575.13;524.73;;;13.60;99.90;;;;;;5025188;28;20568;-68
2022/06/01 03:28:40;;;;;;;512.13;479.63;;;13.60;99.90;;;;;;5018739;28;20306;-69
2022/06/01 03:31:06;;;;;;;654.30;588.37;;;13.70;99.90;;;;;;5012336;28;20215;-69
2022/06/01 03:33:33;;;;;;;591.63;530.47;;;13.70;99.90;;;;;;5019261;28;20844;-68
2022/06/01 03:35:59;;;;;;;209.23;189.90;;;13.70;99.90;;;;;;5012542;28;20227;-68
2022/06/01 03:38:24;;;;;;;481.07;413.83;;;13.60;99.90;;;;;;5014305;28;20612;-67
2022/06/01 03:40:50;;;;;;;283.47;258.90;;;13.70;99.90;;;;;;5037501;28;20386;-67
2022/06/01 03:43:16;;;;;;;539.83;490.47;;;13.60;99.90;;;;;;5029404;28;20259;-67
2022/06/01 03:45:58;;;;;;;361.50;326.73;;;13.60;99.90;;;;;;5044072;28;20191;-67
2022/06/01 03:48:27;;;;;;;157.80;140.97;;;13.70;99.90;;;;;;5020078;28;20211;-68
2022/06/01 03:50:53;;;;;;;280.53;249.37;;;13.80;99.90;;;;;;5025065;28;20212;-67
2022/06/01 03:53:19;;;;;;;391.73;338.13;;;13.80;99.90;;;;;;5039479;28;20773;-66
2022/06/01 03:55:45;;;;;;;233.10;180.03;;;13.90;99.90;;;;;;5016581;28;20717;-68
2022/06/01 03:58:13;;;;;;;27.77;26.07;;;13.90;99.90;;;;;;5016389;28;20200;-68
2022/06/01 04:00:38;;;;;;;25.97;17.27;;;13.80;99.90;;;;;;5020172;28;20236;-68
2022/06/01 04:03:04;;;;;;;4.33;3.77;;;13.80;99.90;;;;;;5038495;28;20212;-66
2022/06/01 04:05:29;;;;;;;69.33;60.30;;;13.70;99.90;;;;;;5013627;28;20278;-68
2022/06/01 04:07:55;;;;;;;223.57;133.57;;;13.70;99.90;;;;;;5041868;28;20195;-69
2022/06/01 04:10:21;;;;;;;22.83;18.83;;;13.60;99.90;;;;;;5024449;28;20192;-68
2022/06/01 04:12:47;;;;;;;18.97;12.87;;;13.60;99.90;;;;;;5020762;28;20274;-67
2022/06/01 04:15:13;;;;;;;156.43;140.93;;;13.60;99.90;;;;;;5019502;28;20242;-67
2022/06/01 04:17:38;;;;;;;142.03;126.97;;;13.60;99.90;;;;;;5031583;28;20278;-68
2022/06/01 04:20:06;;;;;;;232.97;211.23;;;13.60;99.90;;;;;;5026179;28;20311;-68
2022/06/01 04:22:32;;;;;;;172.67;156.40;;;13.50;99.90;;;;;;5018896;28;20192;-68
2022/06/01 04:24:58;;;;;;;206.47;189.07;;;13.60;99.90;;;;;;5029639;28;20204;-68
2022/06/01 04:27:23;;;;;;;520.13;463.00;;;13.60;99.90;;;;;;5041326;28;20198;-68
2022/06/01 04:29:49;;;;;;;374.17;337.80;;;13.50;99.90;;;;;;5037578;28;20501;-68
2022/06/01 04:32:21;;;;;;;475.30;392.00;;;13.50;99.90;;;;;;5015836;28;20184;-68
2022/06/01 04:34:46;;;;;;;189.07;124.17;;;13.40;99.90;;;;;;5012458;28;20673;-67
2022/06/01 04:37:12;;;;;;;94.30;47.47;;;13.40;99.90;;;;;;5014961;28;20234;-69
2022/06/01 04:39:37;;;;;;;10.33;8.57;;;13.40;99.90;;;;;;5020453;28;20263;-68
2022/06/01 04:42:03;;;;;;;11.50;10.50;;;13.40;99.90;;;;;;5021343;28;20646;-68
2022/06/01 04:44:28;;;;;;;37.07;33.37;;;13.40;99.90;;;;;;5033126;28;20275;-68
2022/06/01 04:46:54;;;;;;;152.13;139.43;;;13.50;99.90;;;;;;5010621;28;20756;-68
2022/06/01 04:49:19;;;;;;;125.17;92.60;;;13.50;99.90;;;;;;5024460;28;20657;-67
2022/06/01 04:51:45;;;;;;;152.87;137.83;;;13.60;99.90;;;;;;5023930;28;20184;-67
2022/06/01 04:54:10;;;;;;;29.17;13.80;;;13.60;99.90;;;;;;5034697;28;20258;-67
2022/06/01 04:56:36;;;;;;;122.60;112.33;;;13.50;99.90;;;;;;5018897;28;20768;-67
2022/06/01 04:59:02;;;;;;;192.90;165.50;;;13.60;99.90;;;;;;5034181;28;20226;-68
2022/06/01 05:01:28;;;;;;;323.10;292.23;;;13.70;99.90;;;;;;5017903;28;20735;-68
2022/06/01 05:03:53;;;;;;;207.07;187.43;;;13.90;99.90;;;;;;5041183;28;20689;-68
2022/06/01 05:06:19;;;;;;;5.40;4.90;;;14.20;99.90;;;;;;5017111;28;20207;-67
2022/06/01 05:08:44;;;;;;;5.17;4.77;;;14.30;99.90;;;;;;5033650;28;20287;-67
2022/06/01 05:11:10;;;;;;;5.00;4.60;;;14.40;99.90;;;;;;5014371;28;20605;-67
2022/06/01 05:13:36;;;;;;;5.10;4.70;;;14.40;99.90;;;;;;5038880;28;20670;-68
2022/06/01 05:16:02;;;;;;;4.97;4.50;;;14.40;99.90;;;;;;5010478;28;20597;-66
2022/06/01 05:18:28;;;;;;;5.03;4.63;;;14.10;99.90;;;;;;5026035;28;20246;-67
2022/06/01 05:20:54;;;;;;;63.07;57.93;;;13.90;99.90;;;;;;5016018;28;20685;-68
2022/06/01 05:23:20;;;;;;;338.07;305.87;;;13.90;99.90;;;;;;5028639;28;20196;-69
2022/06/01 05:25:48;;;;;;;247.30;219.80;;;13.90;99.90;;;;;;5024969;28;20204;-70
2022/06/01 05:28:19;;;;;;;184.00;165.10;;;14.10;99.90;;;;;;5033526;28;20198;-70
2022/06/01 05:30:44;;;;;;;46.70;31.10;;;14.20;99.90;;;;;;5014548;28;20231;-69
2022/06/01 05:33:10;;;;;;;21.10;19.13;;;14.10;99.90;;;;;;5018031;28;20313;-71
2022/06/01 05:35:35;;;;;;;54.17;43.47;;;14.20;99.90;;;;;;5015754;28;20204;-70
2022/06/01 05:38:01;;;;;;;36.77;30.10;;;14.30;99.90;;;;;;5030811;28;20305;-70
2022/06/01 05:40:30;;;;;;;59.10;55.60;;;14.30;99.90;;;;;;5020403;28;20215;-67
2022/06/01 05:42:58;;;;;;;6.97;6.10;;;14.20;99.90;;;;;;5020108;28;20216;-66
2022/06/01 05:45:24;;;;;;;7.20;6.53;;;14.10;99.90;;;;;;5019414;28;20204;-67
2022/06/01 05:47:50;;;;;;;5.27;4.80;;;14.00;99.90;;;;;;5024603;28;20235;-69
2022/06/01 05:50:16;;;;;;;5.73;5.20;;;14.10;99.90;;;;;;5024821;28;20658;-68
2022/06/01 05:52:41;;;;;;;5.70;5.20;;;14.30;99.90;;;;;;5033654;28;21035;-69
2022/06/01 05:55:08;;;;;;;5.40;5.00;;;14.40;99.90;;;;;;5027645;28;20253;-69
2022/06/01 05:57:34;;;;;;;5.20;4.80;;;14.50;99.90;;;;;;5020832;28;20200;-66
2022/06/01 06:00:00;;;;;;;5.70;5.17;;;14.70;99.90;;;;;;5039960;28;20583;-66
2022/06/01 06:02:26;;;;;;;5.57;4.57;;;14.80;99.90;;;;;;5036195;28;20197;-67
2022/06/01 06:04:52;;;;;;;5.27;4.87;;;14.80;99.90;;;;;;5030316;28;20572;-69
2022/06/01 06:07:17;;;;;;;4.00;3.63;;;15.20;99.90;;;;;;5009928;28;20562;-69
2022/06/01 06:09:42;;;;;;;4.50;4.20;;;15.30;99.90;;;;;;5033122;28;20200;-69
2022/06/01 06:12:08;;;;;;;4.20;3.90;;;15.40;99.90;;;;;;5016326;28;20179;-67
2022/06/01 06:14:34;;;;;;;4.30;3.90;;;15.40;99.90;;;;;;5024169;28;20200;-68
2022/06/01 06:16:59;;;;;;;4.53;4.13;;;15.50;99.90;;;;;;5014809;28;20289;-69
2022/06/01 06:19:25;;;;;;;4.57;4.20;;;15.70;99.90;;;;;;4964058;28;20294;-69
2022/06/01 06:21:50;;;;;;;4.47;4.17;;;15.60;99.90;;;;;;5013890;28;20176;-68
2022/06/01 06:24:19;;;;;;;5.17;4.67;;;15.40;99.90;;;;;;5026239;28;20534;-71
2022/06/01 06:26:46;;;;;;;5.17;4.77;;;15.50;99.90;;;;;;5017971;28;20181;-70
2022/06/01 06:29:13;;;;;;;5.53;5.13;;;15.40;99.90;;;;;;5015085;28;20195;-68
2022/06/01 06:31:40;;;;;;;5.03;4.53;;;15.50;99.90;;;;;;5015458;28;20180;-69
2022/06/01 06:34:06;;;;;;;4.67;4.30;;;15.70;99.90;;;;;;5018901;28;20205;-68
2022/06/01 06:36:32;;;;;;;4.80;4.40;;;15.90;99.90;;;;;;5015451;28;20910;-67
2022/06/01 06:38:57;;;;;;;3.43;3.13;;;15.90;99.90;;;;;;5016150;28;20314;-68
2022/06/01 06:41:23;;;;;;;4.27;3.97;;;16.00;99.90;;;;;;5017877;28;20561;-71
2022/06/01 06:43:49;;;;;;;5.50;4.10;;;15.70;99.90;;;;;;5036971;28;20218;-69
2022/06/01 06:46:17;;;;;;;4.00;3.30;;;15.60;99.90;;;;;;5005577;28;20204;-70
2022/06/01 06:48:45;;;;;;;5.07;3.93;;;15.80;99.90;;;;;;5028094;28;20578;-68
2022/06/01 06:51:12;;;;;;;4.23;3.77;;;15.80;99.90;;;;;;5014455;28;20206;-68
2022/06/01 06:53:38;;;;;;;3.13;2.93;;;15.80;99.90;;;;;;5042022;28;20333;-69
2022/06/01 06:56:04;;;;;;;4.80;4.30;;;15.80;99.90;;;;;;5017748;28;20295;-69
2022/06/01 06:58:30;;;;;;;3.20;2.90;;;15.70;99.90;;;;;;5034679;28;20191;-67
2022/06/01 07:00:56;;;;;;;3.07;2.77;;;15.90;99.90;;;;;;5030105;28;20195;-66
2022/06/01 07:03:22;;;;;;;3.53;3.33;;;16.10;99.90;;;;;;5023232;28;20192;-68
2022/06/01 07:08:33;;;;;;;3.97;3.67;;;16.50;99.90;;;;;;5009085;28;20577;-69
2022/06/01 07:10:59;;;;;;;4.10;3.70;;;16.80;99.90;;;;;;5024741;28;20231;-69
2022/06/01 07:13:27;;;;;;;3.33;3.13;;;16.80;99.90;;;;;;5043598;28;20260;-68
2022/06/01 07:16:19;;;;;;;2.93;2.73;;;16.80;99.90;;;;;;5034177;28;20247;-67
2022/06/01 07:18:47;;;;;;;3.07;2.67;;;16.90;99.90;;;;;;5017810;28;20215;-68
2022/06/01 07:21:17;;;;;;;2.60;2.43;;;17.20;99.90;;;;;;5027019;28;20209;-68
2022/06/01 07:23:43;;;;;;;4.37;3.20;;;17.10;99.90;;;;;;5020708;28;20194;-69
2022/06/01 07:26:14;;;;;;;4.13;3.70;;;17.20;99.90;;;;;;5023210;28;20673;-67
2022/06/01 07:28:40;;;;;;;3.67;3.03;;;16.90;99.90;;;;;;5008953;28;20188;-68
2022/06/01 07:31:07;;;;;;;5.70;5.10;;;17.20;99.90;;;;;;5021373;28;20223;-69
2022/06/01 07:33:33;;;;;;;83.40;76.10;;;17.50;99.90;;;;;;5045391;28;20687;-69
2022/06/01 07:36:01;;;;;;;2.97;2.70;;;17.60;99.90;;;;;;5023925;28;20695;-69
2022/06/01 07:44:07;;;;;;;2.80;2.60;;;17.00;99.90;;;;;;5008626;28;20191;-68
2022/06/01 07:46:38;;;;;;;2.93;2.73;;;16.80;99.90;;;;;;5027308;28;20224;-69
2022/06/01 07:49:07;;;;;;;2.70;2.50;;;17.00;99.90;;;;;;5041089;28;20300;-70
2022/06/01 07:51:34;;;;;;;3.00;2.77;;;16.60;99.90;;;;;;5020721;28;20991;-68
2022/06/01 07:53:59;;;;;;;3.20;2.90;;;16.90;99.90;;;;;;5041713;28;20228;-69
2022/06/01 07:56:25;;;;;;;3.10;2.90;;;16.80;99.90;;;;;;5023138;28;20575;-69
2022/06/01 07:58:51;;;;;;;3.07;2.80;;;17.00;99.90;;;;;;5038666;28;20551;-70
2022/06/01 08:01:20;;;;;;;3.63;3.37;;;17.10;99.90;;;;;;5016460;28;20212;-68
2022/06/01 08:03:45;;;;;;;29.33;26.67;;;17.20;99.90;;;;;;5044093;28;20547;-68
2022/06/01 08:06:10;;;;;;;88.03;78.57;;;17.40;99.90;;;;;;5019991;28;20311;-68
2022/06/01 08:08:36;;;;;;;6.13;4.60;;;17.50;99.90;;;;;;5025533;28;20202;-68
2022/06/01 08:11:01;;;;;;;4.90;4.33;;;17.30;99.90;;;;;;5022002;28;20629;-69
2022/06/01 08:13:27;;;;;;;14.17;11.20;;;17.50;99.90;;;;;;5024227;28;20204;-68
2022/06/01 08:15:55;;;;;;;56.10;51.47;;;17.40;99.90;;;;;;5023930;28;20737;-68
2022/06/01 08:18:23;;;;;;;5.87;4.97;;;17.30;99.90;;;;;;5037923;28;20193;-68
2022/06/01 08:20:50;;;;;;;12.33;6.67;;;17.40;99.90;;;;;;5025767;28;20197;-68
2022/06/01 08:23:17;;;;;;;9.50;5.87;;;17.60;99.90;;;;;;5039347;28;20281;-68
2022/06/01 08:25:43;;;;;;;14.13;7.37;;;17.90;99.90;;;;;;5027158;28;20204;-67
2022/06/01 08:28:08;;;;;;;9.53;5.40;;;17.90;99.90;;;;;;5011601;28;20821;-68
2022/06/01 08:30:39;;;;;;;7.73;5.43;;;17.90;99.50;;;;;;5042290;28;20208;-68
2022/06/01 08:33:06;;;;;;;9.23;5.27;;;17.20;99.90;;;;;;5025381;28;20200;-68
2022/06/01 08:35:34;;;;;;;6.47;3.93;;;17.10;99.90;;;;;;5005719;28;20208;-69
2022/06/01 08:38:00;;;;;;;18.93;11.33;;;17.20;99.90;;;;;;5017680;28;20217;-68
2022/06/01 08:40:35;;;;;;;107.43;97.67;;;17.60;99.90;;;;;;5014670;28;20547;-69
2022/06/01 08:43:06;;;;;;;139.53;127.07;;;17.20;99.90;;;;;;5013107;28;20285;-69
2022/06/01 08:45:32;;;;;;;48.57;43.27;;;17.30;99.90;;;;;;5018744;28;20193;-68
2022/06/01 08:47:59;;;;;;;7.27;4.53;;;17.60;99.90;;;;;;5013365;28;20465;-68
2022/06/01 08:50:35;;;;;;;8.17;4.43;;;17.90;99.70;;;;;;5027541;28;20835;-69
2022/06/01 08:53:03;;;;;;;3.73;3.30;;;17.60;98.90;;;;;;5045520;28;20190;-68
2022/06/01 08:55:46;;;;;;;6.97;4.47;;;17.60;99.60;;;;;;5029327;28;20226;-68
2022/06/01 08:58:19;;;;;;;3.17;2.70;;;17.60;99.60;;;;;;5025724;28;20196;-68
2022/06/01 09:00:58;;;;;;;3.07;2.87;;;17.60;99.40;;;;;;5033658;28;20633;-69
2022/06/01 09:03:35;;;;;;;2.83;2.63;;;18.10;99.10;;;;;;5007166;28;20962;-68
2022/06/01 09:06:14;;;;;;;4.50;2.37;;;18.30;98.80;;;;;;5021266;28;20291;-68
2022/06/01 09:08:56;;;;;;;7.60;4.37;;;18.00;98.70;;;;;;5047315;28;20561;-69
2022/06/01 09:11:29;;;;;;;6.57;3.97;;;18.10;98.30;;;;;;5005610;28;20204;-68
2022/06/01 09:14:14;;;;;;;50.07;44.70;;;17.90;98.80;;;;;;5007119;28;20213;-68
2022/06/01 09:16:51;;;;;;;13.47;8.63;;;18.10;97.40;;;;;;5013561;28;20470;-68
2022/06/01 09:19:27;;;;;;;3.43;3.13;;;18.10;97.50;;;;;;5010847;28;20637;-68
2022/06/01 09:24:55;;;;;;;4.07;3.47;;;18.00;97.10;;;;;;5005486;28;20619;-66
2022/06/01 09:27:35;;;;;;;4.10;3.30;;;18.20;96.80;;;;;;5018919;28;20215;-69
2022/06/01 09:30:36;;;;;;;10.00;7.33;;;18.40;96.50;;;;;;5004296;28;20207;-67
2022/06/01 09:33:14;;;;;;;6.83;5.47;;;18.40;96.70;;;;;;5031860;28;20701;-68
2022/06/01 09:35:46;;;;;;;288.80;259.37;;;18.60;95.40;;;;;;5014255;28;20230;-68
2022/06/01 09:38:34;;;;;;;306.17;266.00;;;18.70;94.70;;;;;;5028523;28;20198;-68
2022/06/01 09:41:06;;;;;;;3.43;2.83;;;18.70;94.80;;;;;;5005852;28;20571;-67
2022/06/01 09:43:32;;;;;;;4.67;3.43;;;18.50;94.40;;;;;;5040026;28;20188;-66
2022/06/01 09:45:57;;;;;;;320.10;291.00;;;18.60;94.00;;;;;;5021603;28;20254;-67
2022/06/01 09:48:28;;;;;;;243.47;219.37;;;18.60;93.40;;;;;;5036391;28;20295;-68
2022/06/01 09:51:25;;;;;;;46.60;41.13;;;18.60;93.20;;;;;;5015503;28;20205;-68
2022/06/01 09:54:12;;;;;;;455.07;415.23;;;18.50;93.10;;;;;;5014551;28;20229;-68
2022/06/01 09:56:45;;;;;;;147.53;135.03;;;18.70;93.10;;;;;;5015705;28;20214;-68
2022/06/01 10:08:20;;;;;;;516.97;483.60;;;19.00;91.70;;;;;;5006067;28;20194;-67
2022/06/01 10:10:59;;;;;;;5.77;3.20;;;19.20;92.80;;;;;;5013786;28;20204;-68
2022/06/01 10:13:33;;;;;;;183.93;168.13;;;19.40;91.60;;;;;;5032372;28;20693;-69
2022/06/01 10:16:09;;;;;;;9.30;6.43;;;18.90;90.10;;;;;;5013750;28;20692;-67
2022/06/01 10:18:36;;;;;;;8.43;4.60;;;18.80;87.80;;;;;;5011921;28;20222;-67
2022/06/01 10:21:08;;;;;;;627.73;565.73;;;18.80;86.90;;;;;;5014547;28;20251;-68
2022/06/01 10:24:04;;;;;;;75.77;69.20;;;18.80;86.00;;;;;;5016862;28;20194;-70
2022/06/01 10:26:34;;;;;;;43.00;40.30;;;19.00;86.20;;;;;;5012550;28;20748;-70
2022/06/01 10:29:07;;;;;;;4.87;4.20;;;19.50;83.10;;;;;;5018471;28;20198;-77
2022/06/01 10:31:39;;;;;;;176.77;161.20;;;19.60;79.60;;;;;;5012659;28;20214;-79
2022/06/01 10:34:18;;;;;;;239.60;214.13;;;19.70;79.20;;;;;;5010427;28;20290;-77
2022/06/01 10:36:57;;;;;;;436.93;401.20;;;19.60;80.70;;;;;;5010827;28;20209;-69
2022/06/01 10:39:30;;;;;;;653.80;612.57;;;19.80;80.20;;;;;;5005375;28;20696;-65
2022/06/01 10:42:17;;;;;;;205.27;188.60;;;19.40;81.10;;;;;;5011441;28;20581;-68
2022/06/01 10:45:04;;;;;;;163.83;148.07;;;19.00;82.90;;;;;;5015673;28;20169;-69
2022/06/01 10:47:49;;;;;;;532.10;482.20;;;19.10;82.90;;;;;;5015554;28;20205;-67
2022/06/01 10:50:18;;;;;;;380.97;338.77;;;19.30;80.30;;;;;;5011805;28;20588;-67
2022/06/01 10:52:49;;;;;;;6.07;5.47;;;19.50;79.70;;;;;;5015258;28;20188;-69
2022/06/01 10:55:20;;;;;;;209.10;190.70;;;19.40;79.60;;;;;;5008434;28;20233;-68
2022/06/01 10:57:48;;;;;;;280.50;253.70;;;19.10;80.00;;;;;;5016716;28;20191;-68
2022/06/01 11:00:25;;;;;;;346.10;311.53;;;19.20;80.70;;;;;;5015985;28;20213;-69
2022/06/01 11:03:31;;;;;;;66.63;60.87;;;18.90;79.90;;;;;;5015058;28;20193;-70
2022/06/01 11:06:27;;;;;;;199.53;182.63;;;19.10;80.30;;;;;;5008494;28;20284;-69
2022/06/01 11:09:16;;;;;;;370.60;336.60;;;19.30;81.70;;;;;;5013649;28;20198;-70
2022/06/01 11:11:53;;;;;;;373.37;338.50;;;20.30;78.00;;;;;;5011793;28;20297;-68
2022/06/01 11:14:26;;;;;;;804.33;734.17;;;20.50;77.20;;;;;;5008460;28;20209;-70
2022/06/01 11:17:04;;;;;;;343.67;313.27;;;20.50;76.00;;;;;;5014737;28;20566;-70
2022/06/01 11:19:54;;;;;;;271.60;251.60;;;20.60;74.90;;;;;;5010404;28;20216;-72
2022/06/01 11:22:30;;;;;;;378.37;338.63;;;20.70;75.30;;;;;;5015175;28;20178;-72
2022/06/01 11:25:08;;;;;;;406.17;368.57;;;20.80;76.00;;;;;;5012713;28;20243;-70
2022/06/01 11:28:08;;;;;;;110.80;98.97;;;22.10;71.60;;;;;;5011625;28;20307;-67
2022/06/01 11:31:08;;;;;;;194.77;177.70;;;22.90;67.70;;;;;;5013606;28;20409;-68
2022/06/01 11:33:40;;;;;;;54.38;48.75;;;23.70;65.90;;;;;;5014595;28;20196;-68
2022/06/01 11:36:44;;;;;;;210.93;193.07;;;23.80;64.20;;;;;;5012372;28;20206;-69
2022/06/01 11:39:44;;;;;;;8.00;6.45;;;23.60;63.50;;;;;;5017990;28;20211;-69
2022/06/01 11:42:26;;;;;;;303.27;278.40;;;22.90;64.40;;;;;;5011451;28;20517;-68
2022/06/01 11:45:06;;;;;;;618.20;561.13;;;23.70;63.40;;;;;;5007136;28;20231;-67
2022/06/01 11:47:55;;;;;;;46.38;40.15;;;24.30;60.60;;;;;;5012207;28;20190;-68
2022/06/01 11:50:43;;;;;;;469.97;427.93;;;22.60;63.40;;;;;;5011734;28;20315;-68
2022/06/01 11:53:19;;;;;;;141.65;124.97;;;22.40;63.80;;;;;;5017574;28;20184;-68
2022/06/01 11:55:48;;;;;;;915.10;835.60;;;21.80;65.70;;;;;;5011206;28;20225;-67
2022/06/01 11:58:26;;;;;;;174.25;156.88;;;21.90;65.00;;;;;;5021125;28;20200;-68
2022/06/01 12:00:57;;;;;;;763.47;694.83;;;21.90;64.70;;;;;;5018567;28;20279;-67
2022/06/01 12:03:24;;;;;;;440.17;402.70;;;21.60;65.60;;;;;;5017790;28;20548;-66
2022/06/01 12:06:07;;;;;;;832.20;766.93;;;21.50;65.80;;;;;;5024101;28;20212;-67
2022/06/01 12:08:48;;;;;;;789.03;730.00;;;21.30;66.20;;;;;;5019942;28;20257;-67
2022/06/01 12:11:38;;;;;;;375.63;338.30;;;21.10;65.50;;;;;;5015405;28;20317;-69
2022/06/01 12:14:21;;;;;;;798.03;727.40;;;22.00;64.60;;;;;;5018705;28;20203;-68
2022/06/01 12:17:16;;;;;;;743.27;678.17;;;22.30;63.20;;;;;;5014143;28;20234;-69
2022/06/01 12:19:45;;;;;;;473.27;428.20;;;21.40;65.80;;;;;;5015499;28;20219;-67
2022/06/01 12:28:33;;;;;;;133.43;122.90;;;20.90;66.50;;;;;;5018485;28;20198;-68
2022/06/01 12:31:18;;;;;;;725.23;668.07;;;20.60;67.70;;;;;;5013477;28;20211;-68
2022/06/01 12:34:03;;;;;;;420.13;385.60;;;20.70;67.70;;;;;;5015086;28;20184;-68
2022/06/01 12:36:43;;;;;;;602.87;549.53;;;20.60;68.00;;;;;;5013706;28;20199;-69
2022/06/01 12:39:34;;;;;;;171.10;152.87;;;20.40;69.30;;;;;;5012235;28;20542;-69
2022/06/01 12:42:09;;;;;;;4.77;3.63;;;20.10;69.90;;;;;;5012984;28;20197;-74
2022/06/01 12:44:35;;;;;;;106.50;96.83;;;19.80;77.30;;;;;;5015531;28;20183;-68
2022/06/01 12:47:02;;;;;;;712.20;654.93;;;18.70;99.60;;;;;;5016761;28;20584;-69
2022/06/01 12:49:40;;;;;;;513.60;468.93;;;17.30;99.90;;;;;;5016604;28;20199;-79
2022/06/01 12:52:32;;;;;;;11.83;7.30;;;16.60;99.90;;;;;;5015549;28;20193;-72
2022/06/01 12:55:00;;;;;;;80.80;72.53;;;15.70;99.90;;;;;;5015071;28;20244;-71
2022/06/01 12:57:31;;;;;;;4.80;4.07;;;15.50;99.90;;;;;;5015676;28;20176;-71
2022/06/01 13:00:03;;;;;;;6.17;3.83;;;15.30;99.90;;;;;;5018840;28;20199;-70
2022/06/01 13:02:32;;;;;;;5.63;4.70;;;15.20;99.90;;;;;;5015550;28;20229;-69
2022/06/01 13:04:58;;;;;;;3.93;3.63;;;15.10;99.90;;;;;;5017087;28;20199;-69
2022/06/01 13:07:30;;;;;;;4.70;4.23;;;15.00;99.90;;;;;;5017368;28;20186;-70
2022/06/01 13:10:04;;;;;;;4.20;3.83;;;14.80;99.90;;;;;;5012484;28;20211;-76
2022/06/01 13:12:32;;;;;;;5.70;5.20;;;14.70;99.90;;;;;;5015016;28;20897;-70
2022/06/01 13:15:16;;;;;;;5.00;4.10;;;15.10;99.90;;;;;;5017587;28;20685;-71
2022/06/01 13:17:52;;;;;;;4.33;3.93;;;15.60;99.90;;;;;;5019414;28;20232;-70
2022/06/01 13:20:24;;;;;;;4.00;3.60;;;16.00;99.90;;;;;;5018383;28;20241;-70
2022/06/01 13:22:51;;;;;;;3.77;3.47;;;16.40;99.90;;;;;;5018162;28;20643;-70